Time;durP1;ratioP1;P1;durP2;ratioP2;P2;SDS_P1;SDS_P2;PMS_P1;PMS_P2;Temp;Humidity;BMP_temperature;BMP_pressure;BME280_temperature;BME280_humidity;BME280_pressure;Samples;Min_cycle;Max_cycle;Signal;HPM_P1;HPM_P2
2022/08/17 00:02:00;;;;;;;;;;;19.60;99.90;;;;;;5051456;28;20481;-83
2022/08/17 00:04:25;;;;;;;;;;;19.50;99.90;;;;;;5061252;28;19975;-83
2022/08/17 00:06:52;;;;;;;;;;;19.40;99.90;;;;;;5051959;28;20294;-84
2022/08/17 00:09:17;;;;;;;;;;;19.30;99.90;;;;;;5053113;28;19970;-83
2022/08/17 00:11:44;;;;;;;;;;;19.30;99.90;;;;;;5052746;28;20392;-83
2022/08/17 00:14:13;;;;;;;;;;;19.30;99.90;;;;;;5068002;28;19924;-83
2022/08/17 00:16:45;;;;;;;;;;;19.20;99.90;;;;;;5066631;28;20337;-83
2022/08/17 00:19:12;;;;;;;;;;;19.20;99.90;;;;;;5047480;28;20358;-82
2022/08/17 00:21:40;;;;;;;;;;;19.10;99.90;;;;;;5065310;28;19924;-82
2022/08/17 00:24:06;;;;;;;;;;;19.20;99.90;;;;;;5062352;28;19936;-83
2022/08/17 00:26:31;;;;;;;;;;;19.10;99.90;;;;;;5052949;28;19924;-82
2022/08/17 00:28:57;;;;;;;;;;;19.10;99.90;;;;;;5041894;28;19999;-83
2022/08/17 00:31:23;;;;;;;;;;;19.10;99.90;;;;;;5052961;28;19928;-84
2022/08/17 00:33:49;;;;;;;;;;;19.00;99.90;;;;;;5065553;28;19985;-83
2022/08/17 00:36:15;;;;;;;;;;;18.90;99.90;;;;;;5053533;28;19928;-84
2022/08/17 00:38:41;;;;;;;;;;;18.80;99.90;;;;;;5068721;28;19932;-84
2022/08/17 00:41:11;;;;;;;;;;;18.90;99.90;;;;;;5052065;28;20386;-83
2022/08/17 00:43:42;;;;;;;;;;;18.80;99.90;;;;;;5051469;28;19928;-83
2022/08/17 00:46:13;;;;;;;;;;;18.80;99.90;;;;;;5060538;28;20492;-83
2022/08/17 00:48:39;;;;;;;;;;;18.70;99.90;;;;;;5064669;28;20403;-84
2022/08/17 00:51:11;;;;;;;;;;;18.70;99.90;;;;;;5055076;28;20231;-83
2022/08/17 00:53:40;;;;;;;;;;;18.80;99.90;;;;;;5064637;28;19924;-82
2022/08/17 00:56:11;;;;;;;;;;;18.70;99.90;;;;;;5051498;28;21590;-84
2022/08/17 00:58:37;;;;;;;;;;;18.70;99.90;;;;;;5068240;28;19928;-85
2022/08/17 01:01:03;;;;;;;;;;;18.60;99.90;;;;;;5049895;28;19928;-84
2022/08/17 01:03:29;;;;;;;;;;;18.70;99.90;;;;;;5064363;28;19924;-84
2022/08/17 01:05:57;;;;;;;;;;;18.60;99.90;;;;;;5042675;28;20452;-84
2022/08/17 01:08:24;;;;;;;;;;;18.70;99.90;;;;;;5055307;28;20488;-83
2022/08/17 01:10:52;;;;;;;;;;;18.60;99.90;;;;;;5041277;28;19924;-82
2022/08/17 01:13:18;;;;;;;;;;;18.50;99.90;;;;;;5057872;28;19928;-81
2022/08/17 01:15:49;;;;;;;;;;;18.40;99.90;;;;;;5067293;28;19934;-83
2022/08/17 01:18:15;;;;;;;;;;;18.30;99.90;;;;;;5052288;28;19928;-83
2022/08/17 01:20:47;;;;;;;;;;;18.10;99.90;;;;;;5051593;28;19985;-83
2022/08/17 01:23:14;;;;;;;;;;;18.10;99.90;;;;;;5052487;28;20019;-83
2022/08/17 01:25:40;;;;;;;;;;;18.00;99.90;;;;;;5049682;28;19932;-83
2022/08/17 01:28:06;;;;;;;;;;;18.00;99.90;;;;;;5049528;28;19929;-83
2022/08/17 01:30:32;;;;;;;;;;;17.90;99.90;;;;;;5067625;28;19932;-82
2022/08/17 01:33:01;;;;;;;;;;;17.90;99.90;;;;;;5069559;28;20015;-83
2022/08/17 01:35:27;;;;;;;;;;;17.80;99.90;;;;;;5051325;28;20019;-82
2022/08/17 01:37:52;;;;;;;;;;;17.70;99.90;;;;;;5052652;28;19986;-83
2022/08/17 01:40:38;;;;;;;;;;;17.60;99.90;;;;;;5047853;28;19924;-82
2022/08/17 01:43:09;;;;;;;;;;;17.60;99.90;;;;;;5076890;28;19924;-82
2022/08/17 01:45:39;;;;;;;;;;;17.70;99.90;;;;;;5050968;28;19924;-82
2022/08/17 01:48:05;;;;;;;;;;;17.70;99.90;;;;;;5068274;28;20007;-82
2022/08/17 01:50:42;;;;;;;;;;;17.70;99.90;;;;;;5049790;28;20019;-82
2022/08/17 01:53:10;;;;;;;;;;;17.70;99.90;;;;;;5049282;28;19934;-82
2022/08/17 01:55:39;;;;;;;;;;;17.80;99.90;;;;;;5051869;28;19971;-82
2022/08/17 01:58:08;;;;;;;;;;;17.80;99.90;;;;;;5070089;28;19985;-82
2022/08/17 02:00:37;;;;;;;;;;;17.80;99.90;;;;;;5048861;28;20418;-81
2022/08/17 02:03:04;;;;;;;;;;;17.80;99.90;;;;;;5067455;28;19924;-82
2022/08/17 02:08:52;;;;;;;;;;;17.80;99.90;;;;;;5117446;22;19978;-81
2022/08/17 02:11:20;;;;;;;;;;;17.70;99.90;;;;;;5047684;28;19929;-81
2022/08/17 02:13:47;;;;;;;;;;;17.70;99.90;;;;;;5047254;28;19975;-82
2022/08/17 02:16:13;;;;;;;;;;;17.80;99.90;;;;;;5031920;28;20006;-81
2022/08/17 02:25:42;;;;;;;;;;;17.70;99.90;;;;;;5067978;28;19966;-82
2022/08/17 02:28:33;;;;;;;;;;;17.70;99.90;;;;;;5056320;28;19927;-83
2022/08/17 02:31:36;;;;;;;;;;;17.70;99.90;;;;;;5068825;28;19915;-82
2022/08/17 02:34:02;;;;;;;;;;;17.70;99.90;;;;;;5032777;28;20041;-82
2022/08/17 02:36:28;;;;;;;;;;;17.60;99.90;;;;;;5052367;28;20570;-81
2022/08/17 02:38:54;;;;;;;;;;;17.60;99.90;;;;;;5050613;28;19929;-82
2022/08/17 02:41:19;;;;;;;;;;;17.60;99.90;;;;;;5052320;28;19931;-82
2022/08/17 02:43:45;;;;;;;;;;;17.60;99.90;;;;;;5051418;28;19925;-81
2022/08/17 02:46:11;;;;;;;;;;;17.60;99.90;;;;;;5055422;28;19925;-82
2022/08/17 02:48:38;;;;;;;;;;;17.60;99.90;;;;;;5052576;28;19982;-82
2022/08/17 02:51:04;;;;;;;;;;;17.60;99.90;;;;;;5052882;28;19932;-82
2022/08/17 02:53:30;;;;;;;;;;;17.70;99.90;;;;;;5064705;28;19920;-83
2022/08/17 03:02:44;;;;;;;;;;;17.60;99.90;;;;;;5052313;28;19927;-82
2022/08/17 03:05:28;;;;;;;;;;;17.60;99.90;;;;;;5043805;28;19974;-82
2022/08/17 03:11:05;;;;;;;;;;;17.60;99.90;;;;;;5055928;28;19932;-82
2022/08/17 03:13:31;;;;;;;;;;;17.60;99.90;;;;;;5051087;28;19921;-82
2022/08/17 03:22:28;;;;;;;;;;;17.50;99.90;;;;;;5056322;28;20470;-82
2022/08/17 03:24:55;;;;;;;;;;;17.50;99.90;;;;;;5056314;28;19928;-84
2022/08/17 03:27:40;;;;;;;;;;;17.50;99.90;;;;;;5055155;28;19928;-83
2022/08/17 03:30:07;;;;;;;;;;;17.50;99.90;;;;;;5051137;28;19928;-83
2022/08/17 03:32:37;;;;;;;;;;;17.50;99.90;;;;;;5034503;28;19928;-83
2022/08/17 03:35:05;;;;;;;;;;;17.40;99.90;;;;;;5050511;28;20023;-83
2022/08/17 03:37:30;;;;;;;;;;;17.40;99.90;;;;;;5054780;28;19947;-83
2022/08/17 03:39:56;;;;;;;;;;;17.50;99.90;;;;;;5035587;28;20387;-83
2022/08/17 03:42:23;;;;;;;;;;;17.50;99.90;;;;;;5034716;28;19928;-83
2022/08/17 03:44:50;;;;;;;;;;;17.40;99.90;;;;;;5050241;28;19995;-83
2022/08/17 03:58:15;;;;;;;;;;;17.40;99.90;;;;;;5049209;28;19924;-84
2022/08/17 04:00:44;;;;;;;;;;;17.40;99.90;;;;;;5033364;28;20406;-84
2022/08/17 04:03:10;;;;;;;;;;;17.40;99.90;;;;;;5031754;28;20002;-84
2022/08/17 04:05:36;;;;;;;;;;;17.40;99.90;;;;;;5034245;28;19928;-84
2022/08/17 04:08:02;;;;;;;;;;;17.40;99.90;;;;;;5034780;28;20002;-84
2022/08/17 04:10:29;;;;;;;;;;;17.30;99.90;;;;;;5030339;28;19928;-85
2022/08/17 04:12:54;;;;;;;;;;;17.30;99.90;;;;;;5033406;28;20378;-84
2022/08/17 04:15:21;;;;;;;;;;;17.30;99.90;;;;;;5049247;28;19928;-85
2022/08/17 04:17:47;;;;;;;;;;;17.30;99.90;;;;;;5032602;28;19929;-85
2022/08/17 04:20:14;;;;;;;;;;;17.30;99.90;;;;;;5045869;28;19982;-84
2022/08/17 04:22:56;;;;;;;;;;;17.30;99.90;;;;;;5048847;28;19928;-85
2022/08/17 04:25:22;;;;;;;;;;;17.30;99.90;;;;;;5049370;28;19933;-85
2022/08/17 04:27:48;;;;;;;;;;;17.30;99.90;;;;;;5034609;28;19936;-85
2022/08/17 04:30:14;;;;;;;;;;;17.20;99.90;;;;;;5054537;28;20659;-85
2022/08/17 04:33:09;;;;;;;;;;;17.20;99.90;;;;;;5049422;28;19975;-86
2022/08/17 04:35:40;;;;;;;;;;;17.20;99.90;;;;;;5032495;28;19924;-86
2022/08/17 04:38:06;;;;;;;;;;;17.20;99.90;;;;;;5050501;28;20397;-85
2022/08/17 04:43:18;;;;;;;;;;;17.20;99.90;;;;;;5050229;28;20355;-84
2022/08/17 04:45:46;;;;;;;;;;;17.20;99.90;;;;;;5035659;28;19949;-84
2022/08/17 04:48:13;;;;;;;;;;;17.30;99.90;;;;;;5032242;28;20223;-84
2022/08/17 04:50:41;;;;;;;;;;;17.30;99.90;;;;;;5057781;28;19920;-85
2022/08/17 04:53:07;;;;;;;;;;;17.30;99.90;;;;;;5043772;28;19924;-85
2022/08/17 04:55:33;;;;;;;;;;;17.30;99.90;;;;;;5036652;28;20395;-84
2022/08/17 04:57:59;;;;;;;;;;;17.30;99.90;;;;;;5016816;28;19986;-84
2022/08/17 05:00:24;;;;;;;;;;;17.30;99.90;;;;;;5048272;28;19925;-85
2022/08/17 05:02:52;;;;;;;;;;;17.30;99.90;;;;;;5032209;28;19947;-84
2022/08/17 05:05:19;;;;;;;;;;;17.30;99.90;;;;;;5039183;28;20435;-85
2022/08/17 05:07:45;;;;;;;;;;;17.40;99.90;;;;;;5052059;28;19924;-85
2022/08/17 05:10:11;;;;;;;;;;;17.40;99.90;;;;;;5065370;28;19971;-85
2022/08/17 05:12:37;;;;;;;;;;;17.40;99.90;;;;;;5026911;28;19928;-85
2022/08/17 05:15:03;;;;;;;;;;;17.50;99.90;;;;;;5034201;28;20470;-84
2022/08/17 05:17:28;;;;;;;;;;;17.50;99.90;;;;;;5048783;28;19940;-83
2022/08/17 05:19:54;;;;;;;;;;;17.40;99.90;;;;;;5032906;28;19928;-83
2022/08/17 05:22:20;;;;;;;;;;;17.60;99.90;;;;;;5043256;28;19974;-83
2022/08/17 05:24:47;;;;;;;;;;;17.60;99.90;;;;;;5015982;28;20043;-84
2022/08/17 05:27:13;;;;;;;;;;;17.70;99.90;;;;;;5048213;28;19935;-84
2022/08/17 05:29:38;;;;;;;;;;;17.70;99.90;;;;;;5049625;28;19924;-84
2022/08/17 05:32:09;;;;;;;;;;;17.80;99.90;;;;;;5031066;28;19924;-84
2022/08/17 05:34:36;;;;;;;;;;;17.80;99.90;;;;;;5029118;28;19929;-84
2022/08/17 05:37:01;;;;;;;;;;;17.80;99.90;;;;;;5032745;28;19936;-84
2022/08/17 05:39:27;;;;;;;;;;;17.90;99.90;;;;;;5015342;28;19925;-83
2022/08/17 05:41:53;;;;;;;;;;;17.90;99.90;;;;;;5033627;28;19932;-86
2022/08/17 05:44:18;;;;;;;;;;;17.90;99.90;;;;;;5015563;28;19977;-84
2022/08/17 05:47:05;;;;;;;;;;;18.00;99.90;;;;;;5037218;28;19924;-85
2022/08/17 05:49:32;;;;;;;;;;;18.00;99.90;;;;;;5051504;28;19924;-87
2022/08/17 05:51:59;;;;;;;;;;;;;;;;;;5037516;28;19916;-84
2022/08/17 05:54:28;;;;;;;;;;;18.10;99.90;;;;;;5054983;28;19928;-84
2022/08/17 05:57:00;;;;;;;;;;;18.10;99.90;;;;;;5043777;28;19960;-85
2022/08/17 05:59:45;;;;;;;;;;;18.20;99.90;;;;;;5069791;28;19951;-84
2022/08/17 06:02:29;;;;;;;;;;;18.20;99.90;;;;;;5054161;28;19932;-86
2022/08/17 06:04:59;;;;;;;;;;;18.30;99.90;;;;;;5056045;28;19928;-85
2022/08/17 06:07:25;;;;;;;;;;;;;;;;;;5066015;28;19932;-85
2022/08/17 06:10:01;;;;;;;;;;;18.60;99.90;;;;;;5060080;28;19924;-85
2022/08/17 06:15:33;;;;;;;;;;;18.60;99.90;;;;;;5077231;28;19932;-85
2022/08/17 06:18:00;;;;;;;;;;;18.70;99.90;;;;;;5057729;28;20274;-87
2022/08/17 06:20:29;;;;;;;;;;;18.70;99.90;;;;;;5057236;28;19932;-86
2022/08/17 06:22:57;;;;;;;;;;;18.80;99.90;;;;;;5039210;28;19928;-84
2022/08/17 06:25:32;;;;;;;;;;;18.90;99.90;;;;;;5054529;28;19943;-83
2022/08/17 06:28:19;;;;;;;;;;;18.90;99.90;;;;;;5058097;28;19946;-86
2022/08/17 06:30:56;;;;;;;;;;;18.90;99.90;;;;;;5061383;28;20000;-85
2022/08/17 06:33:32;;;;;;;;;;;19.00;99.90;;;;;;5046425;28;19932;-85
2022/08/17 06:49:06;;;;;;;;;;;19.20;99.90;;;;;;5081582;28;19931;-84
2022/08/17 06:51:47;;;;;;;;;;;19.20;99.90;;;;;;5059489;28;19927;-84
2022/08/17 06:54:16;;;;;;;;;;;19.30;99.90;;;;;;5061472;28;20376;-87
2022/08/17 06:56:42;;;;;;;;;;;19.30;99.90;;;;;;5055752;28;19990;-88
2022/08/17 06:59:10;;;;;;;;;;;19.40;99.90;;;;;;5055211;28;19935;-85
2022/08/17 07:01:37;;;;;;;;;;;19.40;99.90;;;;;;5065622;28;19924;-84
2022/08/17 07:04:04;;;;;;;;;;;;;;;;;;5055290;28;19940;-82
2022/08/17 07:06:34;;;;;;;;;;;19.50;99.90;;;;;;5072680;28;19992;-81
2022/08/17 07:09:00;;;;;;;;;;;19.40;99.90;;;;;;5053575;28;19971;-81
2022/08/17 07:11:29;;;;;;;;;;;19.50;99.90;;;;;;5050879;28;20019;-83
2022/08/17 07:14:13;;;;;;;;;;;19.50;99.90;;;;;;5053830;28;20023;-82
2022/08/17 07:16:41;;;;;;;;;;;19.50;99.90;;;;;;5063802;28;20023;-81
2022/08/17 07:19:07;;;;;;;;;;;19.50;99.90;;;;;;5051814;28;20036;-81
2022/08/17 07:21:53;;;;;;;;;;;19.60;99.90;;;;;;5056279;28;19916;-82
2022/08/17 07:24:29;;;;;;;;;;;19.60;99.90;;;;;;5042524;28;20416;-83
2022/08/17 07:26:55;;;;;;;;;;;;;;;;;;5046555;28;19929;-80
2022/08/17 07:29:22;;;;;;;;;;;19.70;99.90;;;;;;5051837;28;19924;-82
2022/08/17 07:31:48;;;;;;;;;;;19.60;99.90;;;;;;5050161;28;19928;-81
2022/08/17 07:34:13;;;;;;;;;;;19.70;99.90;;;;;;5070384;28;20017;-83
2022/08/17 07:36:40;;;;;;;;;;;19.70;99.90;;;;;;5068614;28;20328;-79
2022/08/17 07:39:07;;;;;;;;;;;19.70;99.90;;;;;;5068663;28;19929;-79
2022/08/17 07:41:41;;;;;;;;;;;19.80;99.90;;;;;;5049550;28;19935;-80
2022/08/17 07:44:11;;;;;;;;;;;19.90;99.90;;;;;;5066133;28;19995;-80
2022/08/17 07:49:30;;;;;;;;;;;19.90;99.90;;;;;;5054610;28;20409;-81
2022/08/17 07:52:01;;;;;;;;;;;19.90;99.90;;;;;;5044378;28;19928;-81
2022/08/17 07:54:29;;;;;;;;;;;19.90;99.90;;;;;;5068181;28;19928;-81
2022/08/17 07:56:57;;;;;;;;;;;19.90;99.90;;;;;;5050580;28;20446;-82
2022/08/17 07:59:24;;;;;;;;;;;19.90;99.90;;;;;;5049338;28;19987;-84
2022/08/17 08:01:56;;;;;;;;;;;19.90;99.90;;;;;;5049563;28;20019;-85
2022/08/17 08:04:41;;;;;;;;;;;20.00;99.90;;;;;;5070428;28;19982;-82
2022/08/17 08:07:30;;;;;;;;;;;20.00;99.90;;;;;;5051220;28;20015;-87
2022/08/17 08:09:59;;;;;;;;;;;20.00;99.90;;;;;;5013184;28;19936;-83
2022/08/17 08:12:32;;;;;;;;;;;20.10;99.90;;;;;;5047365;28;19995;-83
2022/08/17 08:15:21;;;;;;;;;;;20.10;99.90;;;;;;5029509;28;19978;-86
2022/08/17 08:17:58;;;;;;;;;;;20.10;99.90;;;;;;5032355;28;19929;-86
2022/08/17 08:20:31;;;;;;;;;;;20.20;99.90;;;;;;5027276;28;20024;-86
2022/08/17 08:23:01;;;;;;;;;;;20.20;99.90;;;;;;5029838;28;20595;-81
2022/08/17 08:25:27;;;;;;;;;;;20.30;99.90;;;;;;5014312;28;19983;-88
2022/08/17 08:28:12;;;;;;;;;;;20.30;99.90;;;;;;5039570;28;19928;-87
2022/08/17 08:30:42;;;;;;;;;;;20.30;99.90;;;;;;5028285;28;19928;-82
2022/08/17 08:33:24;;;;;;;;;;;20.30;99.90;;;;;;5012505;28;19921;-80
2022/08/17 08:35:52;;;;;;;;;;;;;;;;;;5007195;28;19931;-83
2022/08/17 08:38:18;;;;;;;;;;;20.50;99.90;;;;;;5013936;28;20383;-83
2022/08/17 08:40:50;;;;;;;;;;;20.70;99.90;;;;;;5029465;28;20712;-84
2022/08/17 08:43:35;;;;;;;;;;;21.00;99.90;;;;;;5013432;28;20073;-80
2022/08/17 08:46:21;;;;;;;;;;;21.30;99.90;;;;;;5039200;28;19975;-84
2022/08/17 08:48:49;;;;;;;;;;;21.30;99.90;;;;;;5013566;28;20023;-82
2022/08/17 08:51:18;;;;;;;;;;;21.40;99.90;;;;;;5029305;28;20279;-81
2022/08/17 08:53:50;;;;;;;;;;;21.40;99.90;;;;;;5013344;28;19931;-81
2022/08/17 08:56:31;;;;;;;;;;;21.30;99.90;;;;;;5026822;28;20252;-82
2022/08/17 08:59:16;;;;;;;;;;;21.30;99.90;;;;;;5034104;28;19975;-80
2022/08/17 09:02:02;;;;;;;;;;;21.30;99.90;;;;;;5010674;28;19932;-84
2022/08/17 09:04:34;;;;;;;;;;;21.20;99.90;;;;;;5012414;28;19932;-80
2022/08/17 09:07:00;;;;;;;;;;;21.30;99.90;;;;;;5030063;28;19932;-81
2022/08/17 09:09:41;;;;;;;;;;;21.30;99.90;;;;;;5041473;28;19928;-82
2022/08/17 09:12:18;;;;;;;;;;;21.30;99.90;;;;;;5046297;28;19929;-82
2022/08/17 09:14:53;;;;;;;;;;;21.30;99.90;;;;;;5036792;28;20580;-84
2022/08/17 09:17:42;;;;;;;;;;;21.30;99.90;;;;;;5048082;28;19924;-83
2022/08/17 09:20:26;;;;;;;;;;;21.40;99.90;;;;;;5040839;28;19929;-83
2022/08/17 09:22:56;;;;;;;;;;;21.40;99.90;;;;;;5067616;28;19928;-81
2022/08/17 09:25:30;;;;;;;;;;;21.40;99.90;;;;;;5048776;28;19931;-81
2022/08/17 09:28:15;;;;;;;;;;;21.40;99.90;;;;;;5049026;28;19928;-81
2022/08/17 09:30:45;;;;;;;;;;;21.40;99.90;;;;;;5029650;28;20060;-83
2022/08/17 09:33:12;;;;;;;;;;;21.50;99.90;;;;;;5047643;28;19928;-83
2022/08/17 09:35:43;;;;;;;;;;;21.50;99.90;;;;;;5032115;28;19975;-83
2022/08/17 09:38:27;;;;;;;;;;;21.70;99.90;;;;;;5065741;28;20373;-82
2022/08/17 09:41:02;;;;;;;;;;;21.90;99.90;;;;;;5057766;28;19935;-80
2022/08/17 09:43:42;;;;;;;;;;;22.10;99.90;;;;;;5048199;28;19935;-82
2022/08/17 09:46:14;;;;;;;;;;;22.30;99.90;;;;;;5031720;28;19963;-81
2022/08/17 09:48:59;;;;;;;;;;;22.40;99.90;;;;;;5046862;28;19967;-82
2022/08/17 09:51:33;;;;;;;;;;;22.60;99.90;;;;;;5048366;28;19925;-84
2022/08/17 09:53:59;;;;;;;;;;;22.60;99.90;;;;;;5039224;28;19931;-79
2022/08/17 09:56:26;;;;;;;;;;;22.60;99.90;;;;;;5048022;28;19932;-80
2022/08/17 09:58:59;;;;;;;;;;;22.50;99.90;;;;;;5047766;28;19935;-82
2022/08/17 10:01:36;;;;;;;;;;;22.50;99.90;;;;;;5047332;28;19924;-81
2022/08/17 10:04:08;;;;;;;;;;;22.50;99.90;;;;;;5045865;28;19932;-83
2022/08/17 10:06:55;;;;;;;;;;;22.50;99.90;;;;;;5046441;28;20523;-81
2022/08/17 10:09:35;;;;;;;;;;;22.40;99.90;;;;;;5031399;28;20023;-80
2022/08/17 10:12:18;;;;;;;;;;;22.40;99.90;;;;;;5049399;28;20004;-80
2022/08/17 10:15:05;;;;;;;;;;;22.30;99.90;;;;;;5027370;28;20011;-81
2022/08/17 10:17:54;;;;;;;;;;;22.20;99.90;;;;;;5045287;28;19931;-80
2022/08/17 10:20:35;;;;;;;;;;;22.10;99.90;;;;;;5048665;28;19925;-79
2022/08/17 10:26:20;;;;;;;;;;;22.00;99.90;;;;;;5047552;28;19924;-79
2022/08/17 10:28:46;;;;;;;;;;;22.00;99.90;;;;;;5049551;28;19925;-79
2022/08/17 10:31:18;;;;;;;;;;;22.00;99.90;;;;;;5047937;28;20015;-81
2022/08/17 10:33:49;;;;;;;;;;;22.00;99.90;;;;;;5045834;28;19931;-79
2022/08/17 10:36:36;;;;;;;;;;;22.00;99.90;;;;;;5047843;28;20419;-80
2022/08/17 10:39:13;;;;;;;;;;;22.00;99.90;;;;;;5021238;28;19931;-80
2022/08/17 10:41:46;;;;;;;;;;;22.00;99.90;;;;;;5047722;28;19971;-80
2022/08/17 10:44:14;;;;;;;;;;;22.00;99.90;;;;;;5047458;28;20342;-81
2022/08/17 10:46:56;;;;;;;;;;;22.00;99.90;;;;;;5050704;28;19925;-79
2022/08/17 10:49:24;;;;;;;;;;;22.00;99.90;;;;;;5052035;28;19924;-80
2022/08/17 10:51:53;;;;;;;;;;;22.10;99.90;;;;;;5051174;28;20039;-79
2022/08/17 10:54:34;;;;;;;;;;;22.20;99.90;;;;;;5051520;28;19929;-78
2022/08/17 10:57:00;;;;;;;;;;;22.20;99.90;;;;;;5051930;28;19925;-79
2022/08/17 10:59:35;;;;;;;;;;;22.20;99.90;;;;;;5060244;28;19951;-78
2022/08/17 11:02:16;;;;;;;;;;;22.30;99.90;;;;;;5066665;28;19924;-81
2022/08/17 11:04:46;;;;;;;;;;;22.30;99.90;;;;;;5038265;28;19924;-81
2022/08/17 11:07:27;;;;;;;;;;;22.30;99.90;;;;;;5039646;28;20445;-82
2022/08/17 11:10:12;;;;;;;;;;;22.30;99.90;;;;;;5032115;28;19928;-82
2022/08/17 11:12:44;;;;;;;;;;;22.30;99.90;;;;;;5049960;28;20455;-84
2022/08/17 11:15:16;;;;;;;;;;;22.30;99.90;;;;;;5048387;28;19932;-80
2022/08/17 11:17:49;;;;;;;;;;;22.40;99.90;;;;;;5058392;28;19934;-82
2022/08/17 11:20:33;;;;;;;;;;;22.40;99.90;;;;;;5043117;28;19928;-81
2022/08/17 11:23:08;;;;;;;;;;;22.40;99.90;;;;;;5045037;28;19924;-79
2022/08/17 11:25:37;;;;;;;;;;;22.50;99.90;;;;;;5050595;28;20349;-83
2022/08/17 11:28:05;;;;;;;;;;;22.50;99.90;;;;;;5067994;28;19920;-82
2022/08/17 11:30:49;;;;;;;;;;;22.50;99.90;;;;;;5048790;28;20113;-82
2022/08/17 11:33:28;;;;;;;;;;;22.60;99.90;;;;;;5055466;28;19978;-83
2022/08/17 11:35:59;;;;;;;;;;;22.70;99.90;;;;;;5049786;28;19929;-84
2022/08/17 11:38:41;;;;;;;;;;;22.80;99.90;;;;;;5051192;28;20032;-83
2022/08/17 11:41:16;;;;;;;;;;;22.90;99.90;;;;;;5050143;28;19939;-80
2022/08/17 11:43:45;;;;;;;;;;;23.00;99.90;;;;;;5046861;28;19971;-81
2022/08/17 11:46:11;;;;;;;;;;;23.10;99.90;;;;;;5033180;28;19924;-84
2022/08/17 11:51:34;;;;;;;;;;;23.30;99.90;;;;;;5050304;28;20404;-79
2022/08/17 11:54:04;;;;;;;;;;;23.40;99.90;;;;;;5034272;28;19924;-81
2022/08/17 11:56:40;;;;;;;;;;;23.40;99.90;;;;;;5049988;28;19932;-81
2022/08/17 11:59:24;;;;;;;;;;;23.40;99.90;;;;;;5059392;28;19928;-84
2022/08/17 12:01:55;;;;;;;;;;;23.40;99.90;;;;;;5047058;28;19935;-82
2022/08/17 12:04:28;;;;;;;;;;;23.30;99.90;;;;;;5036244;28;19978;-80
2022/08/17 12:07:04;;;;;;;;;;;23.20;99.90;;;;;;5051088;28;19931;-82
2022/08/17 12:09:31;;;;;;;;;;;23.10;99.90;;;;;;5048520;28;19933;-80
2022/08/17 12:12:08;;;;;;;;;;;23.10;99.90;;;;;;5050355;28;19928;-83
2022/08/17 12:14:35;;;;;;;;;;;23.00;99.90;;;;;;5048782;28;19924;-80
2022/08/17 12:17:07;;;;;;;;;;;23.10;99.90;;;;;;5035809;28;19932;-83
2022/08/17 12:19:34;;;;;;;;;;;23.10;99.90;;;;;;5048890;28;20030;-83
2022/08/17 12:22:07;;;;;;;;;;;23.10;99.90;;;;;;5049987;28;19982;-83
2022/08/17 12:24:55;;;;;;;;;;;23.20;99.90;;;;;;5038871;28;19976;-80
2022/08/17 12:27:32;;;;;;;;;;;23.10;99.90;;;;;;5048318;28;20409;-83
2022/08/17 12:29:59;;;;;;;;;;;23.10;99.90;;;;;;5033874;28;19946;-80
2022/08/17 12:32:31;;;;;;;;;;;23.10;99.90;;;;;;5031412;28;20312;-81
2022/08/17 12:34:57;;;;;;;;;;;23.10;99.90;;;;;;5049562;28;19928;-80
2022/08/17 12:37:25;;;;;;;;;;;23.10;99.90;;;;;;5051328;28;19954;-81
2022/08/17 12:39:51;;;;;;;;;;;23.20;99.90;;;;;;5048912;28;19978;-79
2022/08/17 12:42:21;;;;;;;;;;;23.20;99.90;;;;;;5049495;28;20016;-84
2022/08/17 12:44:47;;;;;;;;;;;23.30;99.90;;;;;;5065343;28;20572;-80
2022/08/17 12:47:16;;;;;;;;;;;23.30;99.90;;;;;;5033512;28;20031;-82
2022/08/17 12:49:43;;;;;;;;;;;23.30;99.90;;;;;;5059046;28;19962;-83
2022/08/17 12:52:21;;;;;;;;;;;23.30;99.90;;;;;;5039546;28;19924;-81
2022/08/17 12:54:56;;;;;;;;;;;23.30;99.90;;;;;;5048618;28;20388;-83
2022/08/17 12:57:24;;;;;;;;;;;23.30;99.90;;;;;;5050071;28;20279;-84
2022/08/17 12:59:52;;;;;;;;;;;23.30;99.90;;;;;;5047518;28;19924;-80
2022/08/17 13:02:20;;;;;;;;;;;23.30;99.90;;;;;;5065803;28;19928;-81
2022/08/17 13:04:46;;;;;;;;;;;23.30;99.90;;;;;;5047872;28;19924;-81
2022/08/17 13:07:24;;;;;;;;;;;23.30;99.90;;;;;;5033406;28;19940;-80
2022/08/17 13:09:51;;;;;;;;;;;23.30;99.90;;;;;;5031916;28;19928;-84
2022/08/17 13:12:24;;;;;;;;;;;23.30;99.90;;;;;;5049201;28;20023;-82
2022/08/17 13:14:50;;;;;;;;;;;23.30;99.90;;;;;;5058502;28;19982;-86
2022/08/17 13:17:24;;;;;;;;;;;23.30;99.90;;;;;;5040032;28;19960;-83
2022/08/17 13:19:49;;;;;;;;;;;23.30;99.90;;;;;;5049670;28;19924;-83
2022/08/17 13:22:17;;;;;;;;;;;23.20;99.90;;;;;;5065636;28;21244;-82
2022/08/17 13:24:55;;;;;;;;;;;23.20;99.90;;;;;;5032614;28;19925;-82
2022/08/17 13:27:22;;;;;;;;;;;23.10;99.90;;;;;;5044086;28;19990;-81
2022/08/17 13:29:52;;;;;;;;;;;23.00;99.90;;;;;;5050535;28;19975;-82
2022/08/17 13:32:19;;;;;;;;;;;23.00;99.90;;;;;;5047188;28;19924;-84
2022/08/17 13:34:52;;;;;;;;;;;22.90;99.90;;;;;;5032770;28;19920;-81
2022/08/17 13:37:28;;;;;;;;;;;23.00;99.90;;;;;;5047009;28;19928;-81
2022/08/17 13:40:01;;;;;;;;;;;22.80;99.90;;;;;;5024815;28;19928;-82
2022/08/17 13:42:31;;;;;;;;;;;22.80;99.90;;;;;;5036072;28;19978;-82
2022/08/17 13:44:57;;;;;;;;;;;22.80;99.90;;;;;;5063748;28;19933;-81
2022/08/17 13:47:23;;;;;;;;;;;22.80;99.90;;;;;;5031615;28;19935;-84
2022/08/17 13:49:49;;;;;;;;;;;22.90;99.90;;;;;;5044421;28;19944;-82
2022/08/17 13:52:31;;;;;;;;;;;22.80;99.90;;;;;;5048692;28;20232;-80
2022/08/17 13:54:59;;;;;;;;;;;22.80;99.90;;;;;;5047183;28;19928;-82
2022/08/17 13:57:25;;;;;;;;;;;22.80;99.90;;;;;;5046896;28;20445;-81
2022/08/17 13:59:52;;;;;;;;;;;22.90;99.90;;;;;;5031347;28;19929;-80
2022/08/17 14:02:19;;;;;;;;;;;22.90;99.90;;;;;;5048014;28;19974;-82
2022/08/17 14:04:45;;;;;;;;;;;23.00;99.90;;;;;;5047581;28;19947;-81
2022/08/17 14:07:11;;;;;;;;;;;23.00;99.90;;;;;;5048405;28;20035;-83
2022/08/17 14:09:40;;;;;;;;;;;23.00;99.90;;;;;;5047397;28;20015;-81
2022/08/17 14:12:10;;;;;;;;;;;23.00;99.90;;;;;;5046938;28;19928;-83
2022/08/17 14:14:37;;;;;;;;;;;23.10;99.90;;;;;;5049633;28;20495;-82
2022/08/17 14:17:03;;;;;;;;;;;23.10;99.90;;;;;;5031225;28;19931;-83
2022/08/17 14:19:28;;;;;;;;;;;23.10;99.90;;;;;;5049919;28;20001;-83
2022/08/17 14:21:57;;;;;;;;;;;23.10;99.90;;;;;;5033978;28;19968;-83
2022/08/17 14:24:28;;;;;;;;;;;23.10;99.90;;;;;;5036351;28;20517;-87
2022/08/17 14:26:54;;;;;;;;;;;23.10;99.90;;;;;;5051944;28;19928;-82
2022/08/17 14:29:21;;;;;;;;;;;23.10;99.90;;;;;;5051365;28;19932;-85
2022/08/17 14:31:47;;;;;;;;;;;23.10;99.90;;;;;;5034558;28;19925;-83
2022/08/17 14:34:13;;;;;;;;;;;23.00;99.90;;;;;;5052179;28;19939;-81
2022/08/17 14:36:40;;;;;;;;;;;22.90;99.90;;;;;;5053812;28;19925;-82
2022/08/17 14:39:07;;;;;;;;;;;22.90;99.90;;;;;;5035515;28;19928;-83
2022/08/17 14:41:34;;;;;;;;;;;22.90;99.90;;;;;;5052069;28;19939;-83
2022/08/17 14:44:00;;;;;;;;;;;22.80;99.90;;;;;;5067772;28;19972;-83
2022/08/17 14:46:27;;;;;;;;;;;22.80;99.90;;;;;;5031296;28;19964;-81
2022/08/17 14:48:53;;;;;;;;;;;22.70;99.90;;;;;;5032158;28;19936;-82
2022/08/17 14:51:22;;;;;;;;;;;22.60;99.90;;;;;;5035853;28;19924;-82
2022/08/17 14:53:48;;;;;;;;;;;22.60;99.90;;;;;;5035495;28;19943;-83
2022/08/17 14:56:14;;;;;;;;;;;22.50;99.90;;;;;;5018007;28;20077;-81
2022/08/17 14:58:42;;;;;;;;;;;22.40;99.90;;;;;;5051245;28;19924;-84
2022/08/17 15:01:09;;;;;;;;;;;22.30;99.90;;;;;;5050506;28;19951;-84
2022/08/17 15:03:35;;;;;;;;;;;22.30;99.90;;;;;;5050800;28;19958;-83
2022/08/17 15:06:01;;;;;;;;;;;22.20;99.90;;;;;;5035429;28;19943;-82
2022/08/17 15:08:27;;;;;;;;;;;22.20;99.90;;;;;;5030639;28;20007;-84
2022/08/17 15:10:53;;;;;;;;;;;22.10;99.90;;;;;;5047817;28;19935;-80
2022/08/17 15:13:21;;;;;;;;;;;22.10;99.90;;;;;;5040718;28;19928;-82
2022/08/17 15:15:47;;;;;;;;;;;22.00;99.90;;;;;;5052792;28;19932;-85
2022/08/17 15:18:19;;;;;;;;;;;21.90;99.90;;;;;;5060245;28;19931;-86
2022/08/17 15:20:47;;;;;;;;;;;21.90;99.90;;;;;;5052449;28;20083;-85
2022/08/17 15:23:14;;;;;;;;;;;21.80;99.90;;;;;;5035843;28;20034;-85
2022/08/17 15:25:40;;;;;;;;;;;21.70;99.90;;;;;;5033599;28;19979;-86
2022/08/17 15:28:06;;;;;;;;;;;21.70;99.90;;;;;;5055604;28;20563;-85
2022/08/17 15:30:33;;;;;;;;;;;21.60;99.90;;;;;;5048118;28;19925;-83
2022/08/17 15:32:59;;;;;;;;;;;21.60;99.90;;;;;;5062600;28;20011;-86
2022/08/17 15:35:27;;;;;;;;;;;21.60;99.90;;;;;;5051692;28;19929;-85
2022/08/17 15:37:53;;;;;;;;;;;21.50;99.90;;;;;;5052687;28;20371;-85
2022/08/17 15:40:41;;;;;;;;;;;21.50;99.90;;;;;;5070694;28;19927;-88
2022/08/17 15:43:25;;;;;;;;;;;21.50;99.90;;;;;;5054315;28;19968;-88
2022/08/17 15:45:57;;;;;;;;;;;21.40;99.90;;;;;;5049060;28;19928;-86